Time;durP1;ratioP1;P1;durP2;ratioP2;P2;SDS_P1;SDS_P2;PMS_P1;PMS_P2;Temp;Humidity;BMP_temperature;BMP_pressure;BME280_temperature;BME280_humidity;BME280_pressure;Samples;Min_cycle;Max_cycle;Signal;HPM_P1;HPM_P2
2022/12/24 16:54:28;;;;;;;6.63;4.80;;;;;;;18.21;62.36;100335.16;12832933;22;98893;-81
2022/12/24 17:06:30;;;;;;;;;;;;;;;;;;;;;
2022/12/24 17:12:02;;;;;;;8.30;2.70;;;;;;;17.99;62.92;100328.66;12590238;22;97223;-82
2022/12/24 17:17:21;;;;;;;6.05;2.25;;;;;;;17.93;63.06;100331.72;12788111;22;98922;-87
2022/12/24 17:22:26;;;;;;;5.97;1.90;;;;;;;17.89;63.64;100346.22;12792649;22;98257;-84
2022/12/24 17:27:31;;;;;;;4.90;1.90;;;;;;;17.97;62.18;100341.22;12792113;22;99019;-88
2022/12/24 17:32:36;;;;;;;10.68;5.45;;;;;;;17.99;61.90;100344.63;12796322;22;98978;-82
2022/12/24 17:37:40;;;;;;;3.43;1.87;;;;;;;18.05;60.91;100325.56;12798040;22;99047;-90
2022/12/24 17:42:47;;;;;;;4.13;2.00;;;;;;;17.98;61.43;100328.75;12922591;22;99532;-89
2022/12/24 17:47:51;;;;;;;3.35;1.75;;;;;;;17.91;62.69;100320.34;12926054;22;99313;-90
2022/12/24 17:52:56;;;;;;;4.13;2.00;;;;;;;17.93;61.17;100322.91;12928611;22;98980;-86
2022/12/24 17:58:03;;;;;;;7.25;2.10;;;;;;;17.89;61.01;100324.91;12925276;22;98946;-87
2022/12/24 18:03:13;;;;;;;3.78;1.40;;;;;;;17.92;60.81;100313.19;12921168;22;98441;-87
2022/12/24 18:08:19;;;;;;;5.68;1.80;;;;;;;17.85;61.27;100325.22;12925597;22;100090;-93
2022/12/24 18:13:26;;;;;;;3.42;1.40;;;;;;;17.97;59.26;100317.25;12924489;22;98881;-90
2022/12/24 18:18:31;;;;;;;3.42;1.50;;;;;;;18.03;59.04;100308.00;12925496;22;102594;-91
2022/12/24 18:23:48;;;;;;;;;;;;;;;;;;;;;
2022/12/24 18:28:58;;;;;;;2.97;1.48;;;;;;;17.98;58.95;100292.34;12927487;22;100479;-91
2022/12/24 18:34:05;;;;;;;3.13;1.38;;;;;;;17.97;59.10;100281.78;12927510;22;98669;-91
2022/12/24 18:39:09;;;;;;;4.25;1.67;;;;;;;17.92;59.28;100271.44;12925980;22;98743;-87
2022/12/24 18:44:17;;;;;;;3.20;1.60;;;;;;;17.89;58.68;100287.66;12928399;22;98932;-93
2022/12/24 18:49:28;;;;;;;4.97;1.67;;;;;;;17.89;58.85;100276.13;12930343;22;97573;-92
2022/12/24 18:54:35;;;;;;;2.67;1.40;;;;;;;17.93;58.68;100277.63;12928568;22;98849;-85
2022/12/24 18:59:46;;;;;;;3.00;1.38;;;;;;;17.87;58.90;100280.72;12927969;22;101719;-88
2022/12/24 19:05:13;;;;;;;5.03;3.15;;;;;;;17.98;57.60;100272.84;12899752;22;98663;-87
2022/12/24 19:10:19;;;;;;;2.40;1.25;;;;;;;17.97;57.73;100271.13;12926341;22;99062;-90
2022/12/24 19:15:27;;;;;;;5.88;1.58;;;;;;;17.87;58.47;100268.25;12930200;22;102082;-90
2022/12/24 19:20:40;;;;;;;4.00;1.60;;;;;;;17.83;58.63;100269.41;12928534;22;100532;-89
2022/12/24 19:25:46;;;;;;;3.42;1.38;;;;;;;17.79;58.89;100277.72;12927666;22;98961;-89
2022/12/24 19:30:56;;;;;;;4.85;1.90;;;;;;;17.83;58.89;100272.06;12928595;22;97924;-88
2022/12/24 19:36:08;;;;;;;4.30;1.80;;;;;;;17.80;59.38;100295.41;12927538;22;98290;-89
2022/12/24 19:47:10;;;;;;;4.03;3.25;;;;;;;17.76;60.08;100296.59;12792705;22;98801;-85
2022/12/24 19:52:15;;;;;;;3.67;1.48;;;;;;;17.73;60.37;100318.91;12925606;22;98809;-82
2022/12/24 19:57:18;;;;;;;4.73;1.90;;;;;;;17.76;60.59;100299.25;12925838;22;99186;-85
2022/12/24 20:02:22;;;;;;;3.83;1.70;;;;;;;17.77;60.15;100303.59;12925331;22;99233;-84
2022/12/24 20:07:26;;;;;;;5.22;1.70;;;;;;;17.77;60.08;100298.28;12925107;22;97851;-82
2022/12/24 20:12:30;;;;;;;4.70;1.30;;;;;;;17.83;59.69;100287.22;12926341;22;98814;-82
2022/12/24 20:17:35;;;;;;;2.27;1.27;;;;;;;17.83;59.56;100282.72;12926081;22;97860;-80
2022/12/24 20:22:38;;;;;;;;;;;;;;;17.76;60.14;100296.59;12929507;22;99029;-82
2022/12/24 20:27:43;;;;;;;3.95;1.42;;;;;;;17.78;60.16;100282.19;12928976;22;99178;-81
2022/12/24 20:32:56;;;;;;;5.93;1.63;;;;;;;17.77;59.46;100269.00;12928520;22;99635;-85
2022/12/24 20:38:14;;;;;;;6.05;1.23;;;;;;;17.79;59.05;100241.31;12929439;22;98797;-82
2022/12/24 20:43:18;;;;;;;3.72;1.38;;;;;;;17.85;58.77;100251.53;12928564;22;97873;-81
2022/12/24 20:48:48;;;;;;;;;;;;;;;;;;;;;
2022/12/24 20:54:00;;;;;;;3.22;1.17;;;;;;;17.78;58.92;100234.28;12926403;22;98859;-80
2022/12/24 21:05:25;;;;;;;3.55;1.50;;;;;;;17.72;58.63;100221.41;12854553;22;99060;-82
2022/12/24 21:10:47;;;;;;;4.10;1.30;;;;;;;17.62;58.80;100214.16;12928691;22;99200;-84
2022/12/24 21:15:55;;;;;;;7.22;1.58;;;;;;;17.66;58.38;100221.81;12928411;22;99305;-81
2022/12/24 21:21:04;;;;;;;3.85;1.10;;;;;;;17.63;58.77;100200.75;12928010;22;99174;-83
2022/12/24 21:26:07;;;;;;;2.50;1.15;;;;;;;17.64;58.47;100189.13;12928128;22;98900;-81
2022/12/24 21:31:21;;;;;;;4.35;1.25;;;;;;;17.59;59.26;100182.47;12928503;22;98006;-83
2022/12/24 21:36:26;;;;;;;2.37;1.30;;;;;;;17.58;59.27;100184.25;12928103;22;99314;-79
2022/12/24 21:41:29;;;;;;;;;;;;;;;17.47;59.56;100191.25;12928093;22;99433;-84
2022/12/24 21:46:44;;;;;;;3.45;1.40;;;;;;;17.62;59.26;100187.56;12927078;22;99002;-89
2022/12/24 21:51:49;;;;;;;5.57;1.50;;;;;;;17.59;59.42;100177.13;12927644;22;98860;-83
2022/12/24 22:02:25;;;;;;;2.25;1.40;;;;;;;17.65;60.07;100148.28;12927913;22;99018;-83
2022/12/24 22:13:06;;;;;;;5.00;1.73;;;;;;;17.63;59.57;100160.84;12928010;22;98929;-83
2022/12/24 22:18:14;;;;;;;3.80;1.10;;;;;;;17.66;60.02;100152.63;12927609;22;98830;-84
2022/12/24 22:23:33;;;;;;;;;;;;;;;;;;;;;
2022/12/24 22:28:53;;;;;;;2.83;1.10;;;;;;;17.70;59.65;100150.59;12927932;22;98993;-84
2022/12/24 22:34:05;;;;;;;4.85;1.77;;;;;;;17.75;59.33;100135.16;12927470;22;99056;-84
2022/12/24 22:39:19;;;;;;;2.85;1.30;;;;;;;17.79;59.49;100126.00;12926532;22;99372;-84
2022/12/24 22:44:26;;;;;;;3.80;1.38;;;;;;;17.78;59.15;100111.84;12928011;22;101655;-84
2022/12/24 22:49:36;;;;;;;3.80;1.45;;;;;;;17.82;59.22;100113.34;12928006;22;97535;-85
2022/12/24 22:54:48;;;;;;;4.43;1.30;;;;;;;17.82;59.22;100101.81;12926512;22;98325;-84
2022/12/24 22:59:52;;;;;;;2.90;1.50;;;;;;;17.87;58.83;100102.34;12925653;22;98882;-82
2022/12/24 23:04:57;;;;;;;4.63;1.52;;;;;;;17.82;59.15;100094.69;12926497;22;99115;-82
2022/12/24 23:10:02;;;;;;;3.72;1.40;;;;;;;17.73;59.68;100076.72;12925887;22;97805;-84
2022/12/24 23:15:08;;;;;;;3.20;1.58;;;;;;;17.73;59.64;100051.91;12926615;22;98826;-84
2022/12/24 23:20:12;;;;;;;4.82;1.60;;;;;;;17.67;60.20;100074.50;12925882;22;99909;-84
2022/12/24 23:25:19;;;;;;;5.28;1.73;;;;;;;17.72;60.04;100061.72;12924444;22;98958;-85
2022/12/24 23:30:24;;;;;;;3.75;1.38;;;;;;;17.75;59.91;100085.44;12924915;22;98964;-83
2022/12/24 23:35:27;;;;;;;4.20;1.67;;;;;;;17.73;60.37;100081.19;12926524;22;98967;-84
2022/12/24 23:40:32;;;;;;;4.63;1.38;;;;;;;17.75;60.36;100080.13;12925598;22;98950;-84
2022/12/24 23:45:36;;;;;;;3.28;1.35;;;;;;;17.77;60.69;100064.91;12925516;22;101143;-82
2022/12/24 23:50:39;;;;;;;4.88;1.63;;;;;;;17.87;60.35;100113.84;12926039;22;97579;-83
2022/12/24 23:55:44;;;;;;;3.75;1.42;;;;;;;17.96;60.28;100113.19;12927902;22;99167;-83
